sensor_id;sensor_type;location;lat;lon;timestamp;temperature;humidity
14473;DHT22;7322;50.872;4.386;2024-03-08T00:02:17;18.90;99.90
14473;DHT22;7322;50.872;4.386;2024-03-08T00:04:46;18.90;99.90
14473;DHT22;7322;50.872;4.386;2024-03-08T00:07:13;18.90;99.90
14473;DHT22;7322;50.872;4.386;2024-03-08T00:09:40;18.90;99.90
14473;DHT22;7322;50.872;4.386;2024-03-08T00:12:08;18.90;99.90
14473;DHT22;7322;50.872;4.386;2024-03-08T00:14:35;18.90;99.90
14473;DHT22;7322;50.872;4.386;2024-03-08T00:17:05;18.90;99.90
14473;DHT22;7322;50.872;4.386;2024-03-08T00:19:32;18.80;99.90
14473;DHT22;7322;50.872;4.386;2024-03-08T00:22:01;18.80;99.90
14473;DHT22;7322;50.872;4.386;2024-03-08T00:24:29;18.80;99.90
14473;DHT22;7322;50.872;4.386;2024-03-08T00:26:56;18.80;99.90
14473;DHT22;7322;50.872;4.386;2024-03-08T00:29:24;18.80;99.90
14473;DHT22;7322;50.872;4.386;2024-03-08T00:31:51;18.80;99.90
14473;DHT22;7322;50.872;4.386;2024-03-08T00:34:18;18.80;99.90
14473;DHT22;7322;50.872;4.386;2024-03-08T00:36:45;18.80;99.90
14473;DHT22;7322;50.872;4.386;2024-03-08T00:39:14;18.80;99.90
14473;DHT22;7322;50.872;4.386;2024-03-08T00:41:44;18.80;99.90
14473;DHT22;7322;50.872;4.386;2024-03-08T00:44:12;18.70;99.90
14473;DHT22;7322;50.872;4.386;2024-03-08T00:46:39;18.70;99.90
14473;DHT22;7322;50.872;4.386;2024-03-08T00:49:06;18.70;99.90
14473;DHT22;7322;50.872;4.386;2024-03-08T00:51:33;18.70;99.90
14473;DHT22;7322;50.872;4.386;2024-03-08T00:54:00;18.70;99.90
14473;DHT22;7322;50.872;4.386;2024-03-08T00:56:29;18.70;99.90
14473;DHT22;7322;50.872;4.386;2024-03-08T00:58:55;18.70;99.90
14473;DHT22;7322;50.872;4.386;2024-03-08T01:01:24;18.70;99.90
14473;DHT22;7322;50.872;4.386;2024-03-08T01:03:52;18.70;99.90
14473;DHT22;7322;50.872;4.386;2024-03-08T01:06:19;18.60;99.90
14473;DHT22;7322;50.872;4.386;2024-03-08T01:08:46;18.60;99.90
14473;DHT22;7322;50.872;4.386;2024-03-08T01:11:13;18.60;99.90
14473;DHT22;7322;50.872;4.386;2024-03-08T01:13:42;18.50;99.90
14473;DHT22;7322;50.872;4.386;2024-03-08T01:16:09;18.50;99.90
14473;DHT22;7322;50.872;4.386;2024-03-08T01:18:37;18.50;99.90
14473;DHT22;7322;50.872;4.386;2024-03-08T01:21:04;18.50;99.90
14473;DHT22;7322;50.872;4.386;2024-03-08T01:23:31;18.50;99.90
14473;DHT22;7322;50.872;4.386;2024-03-08T01:26:00;18.50;99.90
14473;DHT22;7322;50.872;4.386;2024-03-08T01:28:28;18.50;99.90
14473;DHT22;7322;50.872;4.386;2024-03-08T01:30:56;18.40;99.90
14473;DHT22;7322;50.872;4.386;2024-03-08T01:33:24;18.40;99.90
14473;DHT22;7322;50.872;4.386;2024-03-08T01:35:52;18.40;99.90
14473;DHT22;7322;50.872;4.386;2024-03-08T01:38:19;18.40;99.90
14473;DHT22;7322;50.872;4.386;2024-03-08T01:40:47;18.40;99.90
14473;DHT22;7322;50.872;4.386;2024-03-08T01:43:20;18.40;99.90
14473;DHT22;7322;50.872;4.386;2024-03-08T01:45:49;18.40;99.90
14473;DHT22;7322;50.872;4.386;2024-03-08T01:48:18;18.40;99.90
14473;DHT22;7322;50.872;4.386;2024-03-08T01:50:47;18.40;99.90
14473;DHT22;7322;50.872;4.386;2024-03-08T01:53:18;18.40;99.90
14473;DHT22;7322;50.872;4.386;2024-03-08T01:55:47;18.30;99.90
14473;DHT22;7322;50.872;4.386;2024-03-08T01:58:18;18.30;99.90
14473;DHT22;7322;50.872;4.386;2024-03-08T02:00:48;18.30;99.90
14473;DHT22;7322;50.872;4.386;2024-03-08T02:03:18;18.30;99.90
14473;DHT22;7322;50.872;4.386;2024-03-08T02:05:46;18.30;99.90
14473;DHT22;7322;50.872;4.386;2024-03-08T02:08:13;18.30;99.90
14473;DHT22;7322;50.872;4.386;2024-03-08T02:10:40;18.20;99.90
14473;DHT22;7322;50.872;4.386;2024-03-08T02:13:08;18.20;99.90
14473;DHT22;7322;50.872;4.386;2024-03-08T02:15:55;18.20;99.90
14473;DHT22;7322;50.872;4.386;2024-03-08T02:18:24;18.20;99.90
14473;DHT22;7322;50.872;4.386;2024-03-08T02:20:53;18.20;99.90
14473;DHT22;7322;50.872;4.386;2024-03-08T02:23:20;18.20;99.90
14473;DHT22;7322;50.872;4.386;2024-03-08T02:25:48;18.20;99.90
14473;DHT22;7322;50.872;4.386;2024-03-08T02:28:15;18.20;99.90
14473;DHT22;7322;50.872;4.386;2024-03-08T02:30:44;18.20;99.90
14473;DHT22;7322;50.872;4.386;2024-03-08T02:33:16;18.20;99.90
14473;DHT22;7322;50.872;4.386;2024-03-08T02:35:43;18.20;99.90
14473;DHT22;7322;50.872;4.386;2024-03-08T02:38:13;18.20;99.90
14473;DHT22;7322;50.872;4.386;2024-03-08T02:40:42;18.20;99.90
14473;DHT22;7322;50.872;4.386;2024-03-08T02:43:09;18.20;99.90
14473;DHT22;7322;50.872;4.386;2024-03-08T02:45:37;18.20;99.90
14473;DHT22;7322;50.872;4.386;2024-03-08T02:48:05;18.20;99.90
14473;DHT22;7322;50.872;4.386;2024-03-08T02:50:34;18.20;99.90
14473;DHT22;7322;50.872;4.386;2024-03-08T02:53:03;18.20;99.90
14473;DHT22;7322;50.872;4.386;2024-03-08T02:55:33;18.20;99.90
14473;DHT22;7322;50.872;4.386;2024-03-08T02:58:03;18.20;99.90
14473;DHT22;7322;50.872;4.386;2024-03-08T03:00:31;18.10;99.90
14473;DHT22;7322;50.872;4.386;2024-03-08T03:03:00;18.10;99.90
14473;DHT22;7322;50.872;4.386;2024-03-08T03:05:29;18.20;99.90
14473;DHT22;7322;50.872;4.386;2024-03-08T03:07:56;18.20;99.90
14473;DHT22;7322;50.872;4.386;2024-03-08T03:10:24;18.10;99.90
14473;DHT22;7322;50.872;4.386;2024-03-08T03:12:53;18.10;99.90
14473;DHT22;7322;50.872;4.386;2024-03-08T03:15:20;18.10;99.90
14473;DHT22;7322;50.872;4.386;2024-03-08T03:17:48;18.10;99.90
14473;DHT22;7322;50.872;4.386;2024-03-08T03:20:16;18.10;99.90
14473;DHT22;7322;50.872;4.386;2024-03-08T03:22:49;18.10;99.90
14473;DHT22;7322;50.872;4.386;2024-03-08T03:25:22;18.10;99.90
14473;DHT22;7322;50.872;4.386;2024-03-08T03:27:53;18.10;99.90
14473;DHT22;7322;50.872;4.386;2024-03-08T03:30:23;18.10;99.90
14473;DHT22;7322;50.872;4.386;2024-03-08T03:32:52;18.10;99.90
14473;DHT22;7322;50.872;4.386;2024-03-08T03:35:20;18.10;99.90
14473;DHT22;7322;50.872;4.386;2024-03-08T03:37:48;18.10;99.90
14473;DHT22;7322;50.872;4.386;2024-03-08T03:40:27;18.00;99.90
14473;DHT22;7322;50.872;4.386;2024-03-08T03:42:58;18.10;99.90
14473;DHT22;7322;50.872;4.386;2024-03-08T03:45:29;18.00;99.90
14473;DHT22;7322;50.872;4.386;2024-03-08T03:47:59;18.10;99.90
14473;DHT22;7322;50.872;4.386;2024-03-08T03:50:26;18.10;99.90
14473;DHT22;7322;50.872;4.386;2024-03-08T03:52:56;18.10;99.90
14473;DHT22;7322;50.872;4.386;2024-03-08T03:55:28;18.10;99.90
14473;DHT22;7322;50.872;4.386;2024-03-08T03:57:58;18.00;99.90
14473;DHT22;7322;50.872;4.386;2024-03-08T04:00:31;18.00;99.90
14473;DHT22;7322;50.872;4.386;2024-03-08T04:02:58;18.10;99.90
14473;DHT22;7322;50.872;4.386;2024-03-08T04:05:26;18.00;99.90
14473;DHT22;7322;50.872;4.386;2024-03-08T04:07:53;18.10;99.90
14473;DHT22;7322;50.872;4.386;2024-03-08T04:10:20;18.00;99.90
14473;DHT22;7322;50.872;4.386;2024-03-08T04:12:47;18.00;99.90
14473;DHT22;7322;50.872;4.386;2024-03-08T04:15:16;18.00;99.90
14473;DHT22;7322;50.872;4.386;2024-03-08T04:17:43;18.00;99.90
14473;DHT22;7322;50.872;4.386;2024-03-08T04:20:11;18.00;99.90
14473;DHT22;7322;50.872;4.386;2024-03-08T04:22:40;18.10;99.90
14473;DHT22;7322;50.872;4.386;2024-03-08T04:25:08;18.00;99.90
14473;DHT22;7322;50.872;4.386;2024-03-08T04:27:36;18.00;99.90
14473;DHT22;7322;50.872;4.386;2024-03-08T04:30:04;18.00;99.90
14473;DHT22;7322;50.872;4.386;2024-03-08T04:32:34;18.00;99.90
14473;DHT22;7322;50.872;4.386;2024-03-08T04:35:01;18.00;99.90
14473;DHT22;7322;50.872;4.386;2024-03-08T04:37:29;18.00;99.90
14473;DHT22;7322;50.872;4.386;2024-03-08T04:39:58;17.90;99.90
14473;DHT22;7322;50.872;4.386;2024-03-08T04:42:28;17.90;99.90
14473;DHT22;7322;50.872;4.386;2024-03-08T04:44:58;18.00;99.90
14473;DHT22;7322;50.872;4.386;2024-03-08T04:47:25;18.00;99.90
14473;DHT22;7322;50.872;4.386;2024-03-08T04:49:57;17.90;99.90
14473;DHT22;7322;50.872;4.386;2024-03-08T04:52:35;18.00;99.90
14473;DHT22;7322;50.872;4.386;2024-03-08T04:55:08;18.00;99.90
14473;DHT22;7322;50.872;4.386;2024-03-08T04:57:38;17.90;99.90
14473;DHT22;7322;50.872;4.386;2024-03-08T05:00:11;17.90;99.90
14473;DHT22;7322;50.872;4.386;2024-03-08T05:02:43;17.90;99.90
14473;DHT22;7322;50.872;4.386;2024-03-08T05:05:18;17.90;99.90
14473;DHT22;7322;50.872;4.386;2024-03-08T05:07:50;17.90;99.90
14473;DHT22;7322;50.872;4.386;2024-03-08T05:10:17;17.90;99.90
14473;DHT22;7322;50.872;4.386;2024-03-08T05:12:44;17.90;99.90
14473;DHT22;7322;50.872;4.386;2024-03-08T05:15:11;17.90;99.90
14473;DHT22;7322;50.872;4.386;2024-03-08T05:17:38;17.80;99.90
14473;DHT22;7322;50.872;4.386;2024-03-08T05:20:07;17.90;99.90
14473;DHT22;7322;50.872;4.386;2024-03-08T05:22:39;17.90;99.90
14473;DHT22;7322;50.872;4.386;2024-03-08T05:25:07;17.90;99.90
14473;DHT22;7322;50.872;4.386;2024-03-08T05:27:36;17.90;99.90
14473;DHT22;7322;50.872;4.386;2024-03-08T05:30:05;17.90;99.90
14473;DHT22;7322;50.872;4.386;2024-03-08T05:32:32;17.90;99.90
14473;DHT22;7322;50.872;4.386;2024-03-08T05:34:59;17.90;99.90
14473;DHT22;7322;50.872;4.386;2024-03-08T05:37:27;17.90;99.90
14473;DHT22;7322;50.872;4.386;2024-03-08T05:39:55;17.90;99.90
14473;DHT22;7322;50.872;4.386;2024-03-08T05:42:22;17.90;99.90
14473;DHT22;7322;50.872;4.386;2024-03-08T05:44:49;17.90;99.90
14473;DHT22;7322;50.872;4.386;2024-03-08T05:47:24;17.90;99.90
14473;DHT22;7322;50.872;4.386;2024-03-08T05:49:52;17.90;99.90
14473;DHT22;7322;50.872;4.386;2024-03-08T05:52:22;17.80;99.90
14473;DHT22;7322;50.872;4.386;2024-03-08T05:54:49;17.80;99.90
14473;DHT22;7322;50.872;4.386;2024-03-08T05:57:21;18.00;99.90
14473;DHT22;7322;50.872;4.386;2024-03-08T05:59:59;18.20;99.90
14473;DHT22;7322;50.872;4.386;2024-03-08T06:02:32;18.50;99.90
14473;DHT22;7322;50.872;4.386;2024-03-08T06:05:00;18.70;99.90
14473;DHT22;7322;50.872;4.386;2024-03-08T06:07:27;19.00;99.90
14473;DHT22;7322;50.872;4.386;2024-03-08T06:09:55;19.30;99.90
14473;DHT22;7322;50.872;4.386;2024-03-08T06:12:24;19.50;99.90
14473;DHT22;7322;50.872;4.386;2024-03-08T06:14:54;19.80;99.90
14473;DHT22;7322;50.872;4.386;2024-03-08T06:17:36;20.10;99.90
14473;DHT22;7322;50.872;4.386;2024-03-08T06:20:03;20.40;99.90
14473;DHT22;7322;50.872;4.386;2024-03-08T06:22:36;20.60;99.90
14473;DHT22;7322;50.872;4.386;2024-03-08T06:25:04;20.80;99.90
14473;DHT22;7322;50.872;4.386;2024-03-08T06:27:32;20.90;99.90
14473;DHT22;7322;50.872;4.386;2024-03-08T06:30:05;21.00;99.90
14473;DHT22;7322;50.872;4.386;2024-03-08T06:32:35;21.00;99.90
14473;DHT22;7322;50.872;4.386;2024-03-08T06:35:03;21.10;99.90
14473;DHT22;7322;50.872;4.386;2024-03-08T06:37:34;21.00;99.90
14473;DHT22;7322;50.872;4.386;2024-03-08T06:40:02;21.10;99.90
14473;DHT22;7322;50.872;4.386;2024-03-08T06:42:37;21.10;99.90
14473;DHT22;7322;50.872;4.386;2024-03-08T06:45:05;21.20;99.90
14473;DHT22;7322;50.872;4.386;2024-03-08T06:47:34;21.20;99.90
14473;DHT22;7322;50.872;4.386;2024-03-08T06:50:01;21.20;99.90
14473;DHT22;7322;50.872;4.386;2024-03-08T06:52:29;21.20;99.90
14473;DHT22;7322;50.872;4.386;2024-03-08T06:55:12;21.30;99.90
14473;DHT22;7322;50.872;4.386;2024-03-08T06:57:41;21.30;99.90
14473;DHT22;7322;50.872;4.386;2024-03-08T07:00:14;21.40;99.90
14473;DHT22;7322;50.872;4.386;2024-03-08T07:02:44;21.30;99.90
14473;DHT22;7322;50.872;4.386;2024-03-08T07:05:21;21.40;99.90
14473;DHT22;7322;50.872;4.386;2024-03-08T07:07:49;21.30;99.90
14473;DHT22;7322;50.872;4.386;2024-03-08T07:10:35;21.30;99.90
14473;DHT22;7322;50.872;4.386;2024-03-08T07:13:08;21.30;99.90
14473;DHT22;7322;50.872;4.386;2024-03-08T07:15:35;21.30;99.90
14473;DHT22;7322;50.872;4.386;2024-03-08T07:18:08;21.20;99.90
14473;DHT22;7322;50.872;4.386;2024-03-08T07:20:46;21.20;99.90
14473;DHT22;7322;50.872;4.386;2024-03-08T07:23:21;21.10;99.90
14473;DHT22;7322;50.872;4.386;2024-03-08T07:26:04;21.10;99.90
14473;DHT22;7322;50.872;4.386;2024-03-08T07:28:32;21.10;99.90
14473;DHT22;7322;50.872;4.386;2024-03-08T07:30:59;21.00;99.90
14473;DHT22;7322;50.872;4.386;2024-03-08T07:33:45;21.00;99.90
14473;DHT22;7322;50.872;4.386;2024-03-08T07:36:18;20.90;99.90
14473;DHT22;7322;50.872;4.386;2024-03-08T07:38:50;20.90;99.90
14473;DHT22;7322;50.872;4.386;2024-03-08T07:41:24;20.80;99.90
14473;DHT22;7322;50.872;4.386;2024-03-08T07:43:54;20.80;99.90
14473;DHT22;7322;50.872;4.386;2024-03-08T07:46:22;20.70;99.90
14473;DHT22;7322;50.872;4.386;2024-03-08T07:48:49;20.70;99.90
14473;DHT22;7322;50.872;4.386;2024-03-08T07:51:17;20.60;99.90
14473;DHT22;7322;50.872;4.386;2024-03-08T07:53:44;20.60;99.90
14473;DHT22;7322;50.872;4.386;2024-03-08T07:56:11;20.50;99.90
14473;DHT22;7322;50.872;4.386;2024-03-08T07:58:39;20.50;99.90
14473;DHT22;7322;50.872;4.386;2024-03-08T08:01:16;20.40;99.90
14473;DHT22;7322;50.872;4.386;2024-03-08T08:03:55;20.40;99.90
14473;DHT22;7322;50.872;4.386;2024-03-08T08:06:23;20.30;99.90
14473;DHT22;7322;50.872;4.386;2024-03-08T08:08:52;20.30;99.90
14473;DHT22;7322;50.872;4.386;2024-03-08T08:11:19;20.30;99.90
14473;DHT22;7322;50.872;4.386;2024-03-08T08:13:47;20.20;99.90
14473;DHT22;7322;50.872;4.386;2024-03-08T08:16:15;20.20;99.90
14473;DHT22;7322;50.872;4.386;2024-03-08T08:18:44;20.20;99.90
14473;DHT22;7322;50.872;4.386;2024-03-08T08:21:11;20.10;99.90
14473;DHT22;7322;50.872;4.386;2024-03-08T08:23:39;20.00;99.90
14473;DHT22;7322;50.872;4.386;2024-03-08T08:26:06;20.00;99.90
14473;DHT22;7322;50.872;4.386;2024-03-08T08:28:33;20.00;99.90
14473;DHT22;7322;50.872;4.386;2024-03-08T08:31:01;20.00;99.90
14473;DHT22;7322;50.872;4.386;2024-03-08T08:33:32;19.90;99.90
14473;DHT22;7322;50.872;4.386;2024-03-08T08:36:01;19.90;99.90
14473;DHT22;7322;50.872;4.386;2024-03-08T08:38:29;19.90;99.90
14473;DHT22;7322;50.872;4.386;2024-03-08T08:40:56;19.90;99.90
14473;DHT22;7322;50.872;4.386;2024-03-08T08:43:28;19.80;99.90
14473;DHT22;7322;50.872;4.386;2024-03-08T08:45:55;19.80;99.90
14473;DHT22;7322;50.872;4.386;2024-03-08T08:48:22;19.80;99.90
14473;DHT22;7322;50.872;4.386;2024-03-08T08:50:53;19.80;99.90
14473;DHT22;7322;50.872;4.386;2024-03-08T08:53:21;19.70;99.90
14473;DHT22;7322;50.872;4.386;2024-03-08T08:55:48;19.70;99.90
14473;DHT22;7322;50.872;4.386;2024-03-08T08:58:15;19.70;99.90
14473;DHT22;7322;50.872;4.386;2024-03-08T09:00:45;19.70;99.90
14473;DHT22;7322;50.872;4.386;2024-03-08T09:03:12;19.70;99.90
14473;DHT22;7322;50.872;4.386;2024-03-08T09:05:39;19.60;99.90
14473;DHT22;7322;50.872;4.386;2024-03-08T09:08:10;19.60;99.90
14473;DHT22;7322;50.872;4.386;2024-03-08T09:10:38;19.60;99.90
14473;DHT22;7322;50.872;4.386;2024-03-08T09:13:05;19.60;99.90
14473;DHT22;7322;50.872;4.386;2024-03-08T09:15:34;19.60;99.90
14473;DHT22;7322;50.872;4.386;2024-03-08T09:18:02;19.60;99.90
14473;DHT22;7322;50.872;4.386;2024-03-08T09:20:30;19.60;99.90
14473;DHT22;7322;50.872;4.386;2024-03-08T09:22:58;19.60;99.90
14473;DHT22;7322;50.872;4.386;2024-03-08T09:25:27;19.50;99.90
14473;DHT22;7322;50.872;4.386;2024-03-08T09:27:54;19.50;99.90
14473;DHT22;7322;50.872;4.386;2024-03-08T09:30:21;19.50;99.90
14473;DHT22;7322;50.872;4.386;2024-03-08T09:32:48;19.50;99.90
14473;DHT22;7322;50.872;4.386;2024-03-08T09:35:16;19.50;99.90
14473;DHT22;7322;50.872;4.386;2024-03-08T09:37:44;19.50;99.90
14473;DHT22;7322;50.872;4.386;2024-03-08T09:40:20;19.50;99.90
14473;DHT22;7322;50.872;4.386;2024-03-08T09:42:59;19.50;99.90
14473;DHT22;7322;50.872;4.386;2024-03-08T09:45:32;19.40;99.90
14473;DHT22;7322;50.872;4.386;2024-03-08T09:48:10;19.40;99.90
14473;DHT22;7322;50.872;4.386;2024-03-08T09:50:41;19.40;99.90
14473;DHT22;7322;50.872;4.386;2024-03-08T09:53:10;19.40;99.90
14473;DHT22;7322;50.872;4.386;2024-03-08T09:55:40;19.40;99.90
14473;DHT22;7322;50.872;4.386;2024-03-08T09:58:12;19.30;99.90
14473;DHT22;7322;50.872;4.386;2024-03-08T10:01:11;19.30;99.90
14473;DHT22;7322;50.872;4.386;2024-03-08T10:03:40;19.30;99.90
14473;DHT22;7322;50.872;4.386;2024-03-08T10:06:12;19.30;99.90
14473;DHT22;7322;50.872;4.386;2024-03-08T10:08:41;19.30;99.90
14473;DHT22;7322;50.872;4.386;2024-03-08T10:11:09;19.30;99.90
14473;DHT22;7322;50.872;4.386;2024-03-08T10:13:39;19.30;99.90
14473;DHT22;7322;50.872;4.386;2024-03-08T10:16:08;19.20;99.90
14473;DHT22;7322;50.872;4.386;2024-03-08T10:18:35;19.20;99.90
14473;DHT22;7322;50.872;4.386;2024-03-08T10:21:04;19.20;99.90
14473;DHT22;7322;50.872;4.386;2024-03-08T10:23:33;19.20;99.90
14473;DHT22;7322;50.872;4.386;2024-03-08T10:26:12;19.20;99.90
14473;DHT22;7322;50.872;4.386;2024-03-08T10:29:09;19.20;99.90
14473;DHT22;7322;50.872;4.386;2024-03-08T10:31:55;19.10;99.90
14473;DHT22;7322;50.872;4.386;2024-03-08T10:34:27;19.20;99.90
14473;DHT22;7322;50.872;4.386;2024-03-08T10:37:00;19.10;99.90
14473;DHT22;7322;50.872;4.386;2024-03-08T10:39:36;19.10;99.90
14473;DHT22;7322;50.872;4.386;2024-03-08T10:42:05;19.10;99.90
14473;DHT22;7322;50.872;4.386;2024-03-08T10:44:50;19.10;99.90
14473;DHT22;7322;50.872;4.386;2024-03-08T10:47:26;19.10;99.90
14473;DHT22;7322;50.872;4.386;2024-03-08T10:50:03;19.10;99.90
14473;DHT22;7322;50.872;4.386;2024-03-08T10:52:36;19.00;99.90
14473;DHT22;7322;50.872;4.386;2024-03-08T10:55:04;19.00;99.90
14473;DHT22;7322;50.872;4.386;2024-03-08T10:57:38;19.00;99.90
14473;DHT22;7322;50.872;4.386;2024-03-08T11:00:08;19.00;99.90
14473;DHT22;7322;50.872;4.386;2024-03-08T11:02:37;19.00;99.90
14473;DHT22;7322;50.872;4.386;2024-03-08T11:05:04;19.00;99.90
14473;DHT22;7322;50.872;4.386;2024-03-08T11:07:46;19.00;99.90
14473;DHT22;7322;50.872;4.386;2024-03-08T11:10:19;19.00;99.90
14473;DHT22;7322;50.872;4.386;2024-03-08T11:12:47;18.90;99.90
14473;DHT22;7322;50.872;4.386;2024-03-08T11:15:16;18.90;99.90
14473;DHT22;7322;50.872;4.386;2024-03-08T11:17:49;18.90;99.90
14473;DHT22;7322;50.872;4.386;2024-03-08T11:20:17;18.90;99.90
14473;DHT22;7322;50.872;4.386;2024-03-08T11:22:50;18.90;99.90
14473;DHT22;7322;50.872;4.386;2024-03-08T11:25:34;18.90;99.90
14473;DHT22;7322;50.872;4.386;2024-03-08T11:28:10;18.90;99.90
14473;DHT22;7322;50.872;4.386;2024-03-08T11:30:44;18.90;99.90
14473;DHT22;7322;50.872;4.386;2024-03-08T11:33:13;18.90;99.90
14473;DHT22;7322;50.872;4.386;2024-03-08T11:35:42;18.90;99.90
14473;DHT22;7322;50.872;4.386;2024-03-08T11:38:12;18.80;99.90
14473;DHT22;7322;50.872;4.386;2024-03-08T11:40:42;18.80;99.90
14473;DHT22;7322;50.872;4.386;2024-03-08T11:43:10;18.80;99.90
14473;DHT22;7322;50.872;4.386;2024-03-08T11:46:09;18.80;99.90
14473;DHT22;7322;50.872;4.386;2024-03-08T11:48:38;18.90;99.90
14473;DHT22;7322;50.872;4.386;2024-03-08T11:51:14;18.80;99.90
14473;DHT22;7322;50.872;4.386;2024-03-08T11:53:45;18.80;99.90
14473;DHT22;7322;50.872;4.386;2024-03-08T11:56:19;18.80;99.90
14473;DHT22;7322;50.872;4.386;2024-03-08T11:58:53;18.80;99.90
14473;DHT22;7322;50.872;4.386;2024-03-08T12:01:23;18.80;99.90
14473;DHT22;7322;50.872;4.386;2024-03-08T12:03:58;18.80;99.90
14473;DHT22;7322;50.872;4.386;2024-03-08T12:06:26;18.80;99.90
14473;DHT22;7322;50.872;4.386;2024-03-08T12:08:54;18.80;99.90
14473;DHT22;7322;50.872;4.386;2024-03-08T12:11:22;18.80;99.90
14473;DHT22;7322;50.872;4.386;2024-03-08T12:13:49;18.80;99.90
14473;DHT22;7322;50.872;4.386;2024-03-08T12:16:17;18.80;99.90
14473;DHT22;7322;50.872;4.386;2024-03-08T12:18:46;18.80;99.90
14473;DHT22;7322;50.872;4.386;2024-03-08T12:21:14;18.80;99.90
14473;DHT22;7322;50.872;4.386;2024-03-08T12:23:45;18.80;99.90
14473;DHT22;7322;50.872;4.386;2024-03-08T12:26:17;18.80;99.90
14473;DHT22;7322;50.872;4.386;2024-03-08T12:28:45;18.70;99.90
14473;DHT22;7322;50.872;4.386;2024-03-08T12:31:13;18.80;99.90
14473;DHT22;7322;50.872;4.386;2024-03-08T12:33:49;18.80;99.90
14473;DHT22;7322;50.872;4.386;2024-03-08T12:36:17;18.80;99.90
14473;DHT22;7322;50.872;4.386;2024-03-08T12:38:45;18.80;99.90
14473;DHT22;7322;50.872;4.386;2024-03-08T12:41:14;18.80;99.90
14473;DHT22;7322;50.872;4.386;2024-03-08T12:43:41;18.80;99.90
14473;DHT22;7322;50.872;4.386;2024-03-08T12:46:08;18.80;99.90
14473;DHT22;7322;50.872;4.386;2024-03-08T12:48:35;18.80;99.90
14473;DHT22;7322;50.872;4.386;2024-03-08T12:51:07;18.80;99.90
14473;DHT22;7322;50.872;4.386;2024-03-08T12:53:34;18.80;99.90
14473;DHT22;7322;50.872;4.386;2024-03-08T12:56:02;18.80;99.90
14473;DHT22;7322;50.872;4.386;2024-03-08T12:58:33;18.80;99.90
14473;DHT22;7322;50.872;4.386;2024-03-08T13:01:02;18.80;99.90
14473;DHT22;7322;50.872;4.386;2024-03-08T13:03:30;18.80;99.90
14473;DHT22;7322;50.872;4.386;2024-03-08T13:05:57;18.80;99.90
14473;DHT22;7322;50.872;4.386;2024-03-08T13:08:26;18.80;99.90
14473;DHT22;7322;50.872;4.386;2024-03-08T13:10:55;18.80;99.90
14473;DHT22;7322;50.872;4.386;2024-03-08T13:13:22;18.80;99.90
14473;DHT22;7322;50.872;4.386;2024-03-08T13:15:51;18.80;99.90
14473;DHT22;7322;50.872;4.386;2024-03-08T13:18:19;18.80;99.90
14473;DHT22;7322;50.872;4.386;2024-03-08T13:20:47;18.80;99.90
14473;DHT22;7322;50.872;4.386;2024-03-08T13:23:20;18.80;99.90
14473;DHT22;7322;50.872;4.386;2024-03-08T13:25:48;18.80;99.90
14473;DHT22;7322;50.872;4.386;2024-03-08T13:28:16;18.80;99.90
14473;DHT22;7322;50.872;4.386;2024-03-08T13:30:50;18.80;99.90
14473;DHT22;7322;50.872;4.386;2024-03-08T13:33:18;18.80;99.90
14473;DHT22;7322;50.872;4.386;2024-03-08T13:35:46;18.80;99.90
14473;DHT22;7322;50.872;4.386;2024-03-08T13:38:13;18.80;99.90
14473;DHT22;7322;50.872;4.386;2024-03-08T13:40:40;18.80;99.90
14473;DHT22;7322;50.872;4.386;2024-03-08T13:43:09;18.80;99.90
14473;DHT22;7322;50.872;4.386;2024-03-08T13:45:36;18.80;99.90
14473;DHT22;7322;50.872;4.386;2024-03-08T13:48:05;18.80;99.90
14473;DHT22;7322;50.872;4.386;2024-03-08T13:50:34;18.80;99.90
14473;DHT22;7322;50.872;4.386;2024-03-08T13:53:02;18.80;99.90
14473;DHT22;7322;50.872;4.386;2024-03-08T13:55:30;18.80;99.90
14473;DHT22;7322;50.872;4.386;2024-03-08T13:57:57;18.80;99.90
14473;DHT22;7322;50.872;4.386;2024-03-08T14:00:26;18.80;99.90
14473;DHT22;7322;50.872;4.386;2024-03-08T14:02:58;18.80;99.90
14473;DHT22;7322;50.872;4.386;2024-03-08T14:05:26;18.80;99.90
14473;DHT22;7322;50.872;4.386;2024-03-08T14:07:53;18.80;99.90
14473;DHT22;7322;50.872;4.386;2024-03-08T14:10:21;18.80;99.90
14473;DHT22;7322;50.872;4.386;2024-03-08T14:12:49;18.80;99.90
14473;DHT22;7322;50.872;4.386;2024-03-08T14:15:18;18.80;99.90
14473;DHT22;7322;50.872;4.386;2024-03-08T14:17:53;18.80;99.90
14473;DHT22;7322;50.872;4.386;2024-03-08T14:20:21;18.80;99.90
14473;DHT22;7322;50.872;4.386;2024-03-08T14:22:51;18.80;99.90
14473;DHT22;7322;50.872;4.386;2024-03-08T14:25:18;18.80;99.90
14473;DHT22;7322;50.872;4.386;2024-03-08T14:27:46;18.80;99.90
14473;DHT22;7322;50.872;4.386;2024-03-08T14:30:13;18.70;99.90
14473;DHT22;7322;50.872;4.386;2024-03-08T14:32:59;18.80;99.90
14473;DHT22;7322;50.872;4.386;2024-03-08T14:35:26;18.80;99.90
14473;DHT22;7322;50.872;4.386;2024-03-08T14:37:55;18.80;99.90
14473;DHT22;7322;50.872;4.386;2024-03-08T14:40:24;18.80;99.90
14473;DHT22;7322;50.872;4.386;2024-03-08T14:42:51;18.80;99.90
14473;DHT22;7322;50.872;4.386;2024-03-08T14:45:18;18.80;99.90
14473;DHT22;7322;50.872;4.386;2024-03-08T14:47:46;18.80;99.90
14473;DHT22;7322;50.872;4.386;2024-03-08T14:50:18;18.80;99.90
14473;DHT22;7322;50.872;4.386;2024-03-08T14:52:46;18.80;99.90
14473;DHT22;7322;50.872;4.386;2024-03-08T14:55:14;18.80;99.90
14473;DHT22;7322;50.872;4.386;2024-03-08T14:57:43;18.80;99.90
14473;DHT22;7322;50.872;4.386;2024-03-08T15:00:13;18.80;99.90
14473;DHT22;7322;50.872;4.386;2024-03-08T15:02:52;18.80;99.90
14473;DHT22;7322;50.872;4.386;2024-03-08T15:05:20;18.80;99.90
14473;DHT22;7322;50.872;4.386;2024-03-08T15:07:52;18.70;99.90
14473;DHT22;7322;50.872;4.386;2024-03-08T15:10:19;18.80;99.90
14473;DHT22;7322;50.872;4.386;2024-03-08T15:12:50;18.80;99.90
14473;DHT22;7322;50.872;4.386;2024-03-08T15:15:21;18.80;99.90
14473;DHT22;7322;50.872;4.386;2024-03-08T15:17:50;18.80;99.90
14473;DHT22;7322;50.872;4.386;2024-03-08T15:20:21;18.70;99.90
14473;DHT22;7322;50.872;4.386;2024-03-08T15:22:51;18.80;99.90
14473;DHT22;7322;50.872;4.386;2024-03-08T15:25:20;18.70;99.90
14473;DHT22;7322;50.872;4.386;2024-03-08T15:27:51;18.80;99.90
14473;DHT22;7322;50.872;4.386;2024-03-08T15:30:19;18.70;99.90
14473;DHT22;7322;50.872;4.386;2024-03-08T15:32:48;18.80;99.90
14473;DHT22;7322;50.872;4.386;2024-03-08T15:35:16;18.70;99.90
14473;DHT22;7322;50.872;4.386;2024-03-08T15:37:46;18.70;99.90
14473;DHT22;7322;50.872;4.386;2024-03-08T15:40:15;18.80;99.90
14473;DHT22;7322;50.872;4.386;2024-03-08T15:42:48;18.80;99.90
14473;DHT22;7322;50.872;4.386;2024-03-08T15:45:16;18.70;99.90
14473;DHT22;7322;50.872;4.386;2024-03-08T15:47:44;18.70;99.90
14473;DHT22;7322;50.872;4.386;2024-03-08T15:50:11;18.70;99.90
14473;DHT22;7322;50.872;4.386;2024-03-08T15:52:42;18.70;99.90
14473;DHT22;7322;50.872;4.386;2024-03-08T15:55:14;18.70;99.90
14473;DHT22;7322;50.872;4.386;2024-03-08T15:57:45;18.70;99.90
14473;DHT22;7322;50.872;4.386;2024-03-08T16:00:15;18.70;99.90
14473;DHT22;7322;50.872;4.386;2024-03-08T16:02:56;18.70;99.90